Time;durP1;ratioP1;P1;durP2;ratioP2;P2;SDS_P1;SDS_P2;PMS_P1;PMS_P2;Temp;Humidity;BMP_temperature;BMP_pressure;BME280_temperature;BME280_humidity;BME280_pressure;Samples;Min_cycle;Max_cycle;Signal;HPM_P1;HPM_P2
2023/09/01 00:00:26;;;;;;;37.72;13.93;;;;;;;29.19;nan;97979.03;4937265;28;20054;-61
2023/09/01 00:03:11;;;;;;;36.78;13.35;;;;;;;29.11;nan;97980.69;4946200;28;20071;-62
2023/09/01 00:05:41;;;;;;;39.30;14.68;;;;;;;29.19;nan;97987.22;4926564;29;20090;-63
2023/09/01 00:08:11;;;;;;;36.88;17.30;;;;;;;29.12;nan;97987.72;4921259;28;20462;-62
2023/09/01 00:10:40;;;;;;;42.83;18.75;;;;;;;29.03;nan;97993.25;4913448;29;20055;-61
2023/09/01 00:13:10;;;;;;;48.63;20.67;;;;;;;29.07;nan;97995.34;4939102;28;20054;-61
2023/09/01 00:15:41;;;;;;;54.38;19.30;;;;;;;29.04;nan;97991.31;4922617;29;20069;-62
2023/09/01 00:18:11;;;;;;;56.85;21.30;;;;;;;29.06;nan;97993.72;4937214;28;20055;-63
2023/09/01 00:20:41;;;;;;;51.70;22.25;;;;;;;29.05;nan;97992.91;4943967;28;20051;-62
2023/09/01 00:23:11;;;;;;;56.08;23.02;;;;;;;29.03;nan;97997.91;4913578;29;20162;-62
2023/09/01 00:25:40;;;;;;;45.63;21.33;;;;;;;29.03;nan;97990.50;4942288;28;20054;-62
2023/09/01 00:28:10;;;;;;;64.88;25.55;;;;;;;29.07;nan;97992.59;4946138;28;20051;-62
2023/09/01 00:31:00;;;;;;;70.25;28.15;;;;;;;29.02;nan;97994.41;4912194;29;20420;-63
2023/09/01 00:33:30;;;;;;;54.92;27.92;;;;;;;29.03;nan;98001.41;4945915;28;20055;-62
2023/09/01 00:36:00;;;;;;;59.55;26.48;;;;;;;28.99;nan;98005.13;4938759;29;20643;-62
2023/09/01 00:38:32;;;;;;;60.45;27.10;;;;;;;29.01;nan;98002.91;4929979;29;20052;-62
2023/09/01 00:41:01;;;;;;;55.42;27.77;;;;;;;29.01;nan;98011.88;4940693;28;20055;-63
2023/09/01 00:43:30;;;;;;;69.90;27.65;;;;;;;29.03;nan;98011.56;4947544;28;20055;-62
2023/09/01 00:46:00;;;;;;;59.63;28.95;;;;;;;29.03;nan;98006.09;4947601;29;20051;-62
2023/09/01 00:48:29;;;;;;;63.40;29.30;;;;;;;29.07;nan;98020.69;4929086;29;20061;-62
2023/09/01 00:50:59;;;;;;;72.43;31.33;;;;;;;29.04;nan;98004.94;4947834;28;20390;-62
2023/09/01 00:53:29;;;;;;;65.88;29.88;;;;;;;29.06;nan;98010.88;4947720;28;20062;-62
2023/09/01 00:55:59;;;;;;;69.15;31.25;;;;;;;29.08;nan;98022.25;4947719;28;20039;-62
2023/09/01 00:58:28;;;;;;;64.97;30.38;;;;;;;29.07;nan;98015.22;4930965;29;20059;-62
2023/09/01 01:00:58;;;;;;;81.00;31.02;;;;;;;29.10;nan;98021.94;4931218;29;20055;-62
2023/09/01 01:03:28;;;;;;;65.75;30.08;;;;;;;29.12;nan;98017.72;4927534;29;20058;-63
2023/09/01 01:06:36;;;;;;;47.03;22.05;;;;;;;29.19;nan;98018.03;4926772;29;20478;-63
2023/09/01 01:09:44;;;;;;;45.70;22.35;;;;;;;29.24;nan;98028.75;4934544;28;20055;-62
2023/09/01 01:12:31;;;;;;;44.65;21.52;;;;;;;29.37;nan;98030.47;4909511;29;20061;-62
2023/09/01 01:15:09;;;;;;;50.92;22.25;;;;;;;29.43;nan;98031.84;4947128;28;20051;-62
2023/09/01 01:17:45;;;;;;;51.13;21.92;;;;;;;29.47;nan;98023.81;4929656;29;20043;-63
2023/09/01 01:20:37;;;;;;;55.53;22.73;;;;;;;29.53;nan;98029.84;4946703;28;20047;-63
2023/09/01 01:23:17;;;;;;;49.08;23.05;;;;;;;29.57;nan;98031.59;4946632;28;20042;-64
2023/09/01 01:25:53;;;;;;;50.13;22.40;;;;;;;29.66;nan;98047.91;4947353;29;20126;-62
2023/09/01 01:28:22;;;;;;;55.08;23.42;;;;;;;29.67;nan;98049.50;4946486;29;20130;-63
2023/09/01 01:30:52;;;;;;;51.22;23.23;;;;;;;29.72;nan;98047.38;4933992;28;20055;-62
2023/09/01 01:33:35;;;;;;;56.53;22.92;;;;;;;29.79;nan;98044.09;4926643;28;20083;-63
2023/09/01 01:36:27;;;;;;;52.08;22.80;;;;;;;29.81;nan;98058.22;4945909;28;20478;-63
2023/09/01 01:39:20;;;;;;;44.75;22.50;;;;;;;29.88;nan;98051.13;4946901;28;20051;-63
2023/09/01 01:41:55;;;;;;;58.55;22.75;;;;;;;29.90;nan;98059.00;4945852;28;20106;-63
2023/09/01 01:44:31;;;;;;;41.70;22.13;;;;;;;29.99;nan;98062.44;4944077;28;20106;-63
2023/09/01 01:47:00;;;;;;;51.00;21.35;;;;;;;30.07;nan;98064.31;4930541;29;20054;-62
2023/09/01 01:49:30;;;;;;;50.33;23.88;;;;;;;30.11;nan;98067.94;4946193;28;20078;-62
2023/09/01 01:52:01;;;;;;;49.88;21.05;;;;;;;30.19;nan;98067.06;4930031;29;20039;-63
2023/09/01 01:54:31;;;;;;;42.80;22.33;;;;;;;30.23;nan;98070.72;4929673;29;20043;-63
2023/09/01 01:57:01;;;;;;;49.03;23.05;;;;;;;30.34;nan;98063.72;4946028;28;20497;-65
2023/09/01 01:59:30;;;;;;;53.60;23.73;;;;;;;30.39;nan;98059.16;4929251;28;20142;-63
2023/09/01 02:01:59;;;;;;;52.90;21.77;;;;;;;30.40;nan;98064.31;4929673;29;20501;-63
2023/09/01 02:04:29;;;;;;;50.83;20.45;;;;;;;30.51;nan;98067.44;4946677;28;20058;-63
2023/09/01 02:06:58;;;;;;;44.80;19.77;;;;;;;30.56;nan;98078.94;4946363;29;20051;-63
2023/09/01 02:09:29;;;;;;;47.67;19.50;;;;;;;30.66;nan;98081.25;4943455;28;20178;-62
2023/09/01 02:11:59;;;;;;;42.45;19.65;;;;;;;30.77;nan;98078.88;4947217;28;20467;-63
2023/09/01 02:14:29;;;;;;;54.22;20.05;;;;;;;30.84;nan;98076.38;4946685;28;20146;-63
2023/09/01 02:16:59;;;;;;;40.53;17.95;;;;;;;30.96;nan;98079.13;4930275;29;20054;-63
2023/09/01 02:19:29;;;;;;;37.75;16.23;;;;;;;31.09;nan;98077.22;4944677;28;20053;-63
2023/09/01 02:21:58;;;;;;;42.38;16.67;;;;;;;31.29;nan;98083.72;4945453;28;20138;-63
2023/09/01 02:24:27;;;;;;;51.95;17.05;;;;;;;31.49;nan;98082.78;4924022;29;20110;-63
2023/09/01 02:26:57;;;;;;;40.97;16.10;;;;;;;31.69;nan;98084.59;4946482;28;20454;-63
2023/09/01 02:29:26;;;;;;;39.42;14.52;;;;;;;31.67;nan;98092.38;4946660;28;20039;-63
2023/09/01 02:31:55;;;;;;;42.55;14.43;;;;;;;31.82;nan;98093.59;4932547;29;20451;-62
2023/09/01 02:34:25;;;;;;;32.30;14.02;;;;;;;31.83;nan;98098.72;4945212;28;20052;-63
2023/09/01 02:36:55;;;;;;;42.42;14.45;;;;;;;31.85;nan;98109.34;4921975;29;20055;-63
2023/09/01 02:39:24;;;;;;;37.30;14.25;;;;;;;31.86;nan;98105.47;4941421;28;20063;-63
2023/09/01 02:42:00;;;;;;;49.63;13.40;;;;;;;31.97;nan;98103.81;4950263;28;20110;-63
2023/09/01 02:44:29;;;;;;;34.60;13.55;;;;;;;32.09;nan;98110.09;4926995;29;20558;-63
2023/09/01 02:46:58;;;;;;;37.65;12.57;;;;;;;32.05;nan;98100.94;4932755;29;20177;-63
2023/09/01 02:49:28;;;;;;;37.72;11.60;;;;;;;32.14;nan;98109.03;4945195;28;20074;-63
2023/09/01 02:52:01;;;;;;;35.45;13.57;;;;;;;32.27;nan;98107.84;4932460;29;20047;-64
2023/09/01 02:54:30;;;;;;;30.10;11.63;;;;;;;32.25;nan;98110.16;4947510;29;20078;-63
2023/09/01 02:57:00;;;;;;;29.08;11.02;;;;;;;32.24;nan;98118.72;4932955;29;20059;-63
2023/09/01 02:59:29;;;;;;;38.00;11.93;;;;;;;32.20;nan;98121.38;4922849;29;20052;-62
2023/09/01 03:01:58;;;;;;;35.15;11.95;;;;;;;32.25;nan;98121.13;4920729;29;20051;-63
2023/09/01 03:04:30;;;;;;;29.00;10.40;;;;;;;32.27;nan;98123.50;4935634;28;20641;-62
2023/09/01 03:06:59;;;;;;;33.80;11.63;;;;;;;32.35;nan;98115.13;4931273;29;20666;-63
2023/09/01 03:09:28;;;;;;;30.52;11.25;;;;;;;32.54;nan;98126.22;4928448;29;20075;-63
2023/09/01 03:11:58;;;;;;;34.55;11.57;;;;;;;32.56;nan;98122.34;4931023;29;20061;-63
2023/09/01 03:14:27;;;;;;;28.00;10.90;;;;;;;32.55;nan;98127.03;4945079;28;20150;-63
2023/09/01 03:16:57;;;;;;;40.55;11.60;;;;;;;32.66;nan;98128.16;4948691;28;20059;-63
2023/09/01 03:19:26;;;;;;;29.48;11.27;;;;;;;32.69;nan;98124.72;4927434;29;20071;-63
2023/09/01 03:21:56;;;;;;;25.92;10.32;;;;;;;32.74;nan;98132.69;4934438;29;20459;-62
2023/09/01 03:24:27;;;;;;;27.85;10.85;;;;;;;32.67;nan;98132.47;4932087;29;20047;-64
2023/09/01 03:26:57;;;;;;;27.73;9.88;;;;;;;32.80;nan;98135.94;4932709;29;20106;-63
2023/09/01 03:29:26;;;;;;;29.90;11.07;;;;;;;32.94;nan;98141.81;4919666;29;20138;-63
2023/09/01 03:31:56;;;;;;;33.67;10.57;;;;;;;32.93;nan;98146.50;4945122;28;20058;-63
2023/09/01 03:34:25;;;;;;;28.98;11.80;;;;;;;32.94;nan;98148.09;4931738;29;20055;-63
2023/09/01 03:36:55;;;;;;;30.65;10.10;;;;;;;33.05;nan;98155.81;4943018;28;20053;-63
2023/09/01 03:39:24;;;;;;;34.92;10.75;;;;;;;32.86;nan;98154.56;4941931;28;20394;-63
2023/09/01 03:41:54;;;;;;;26.35;9.82;;;;;;;33.01;nan;98158.47;4933328;28;20085;-63
2023/09/01 03:44:23;;;;;;;34.55;12.00;;;;;;;33.04;nan;98163.25;4941503;28;20047;-63
2023/09/01 03:46:52;;;;;;;35.20;10.57;;;;;;;33.08;nan;98160.59;4930863;29;20133;-63
2023/09/01 03:49:21;;;;;;;39.65;10.70;;;;;;;33.10;nan;98166.53;4931283;28;20055;-63
2023/09/01 03:51:51;;;;;;;29.05;10.63;;;;;;;33.16;nan;98168.69;4931751;29;20051;-63
2023/09/01 03:54:20;;;;;;;26.50;9.25;;;;;;;33.29;nan;98172.94;4928264;29;20043;-64
2023/09/01 03:56:50;;;;;;;29.05;9.57;;;;;;;33.36;nan;98175.06;4940830;28;20395;-63
2023/09/01 03:59:20;;;;;;;33.88;9.77;;;;;;;33.36;nan;98178.63;4917638;29;20547;-63
2023/09/01 04:01:49;;;;;;;33.72;8.93;;;;;;;33.51;nan;98171.50;4931522;29;20159;-64
2023/09/01 04:04:19;;;;;;;32.33;10.43;;;;;;;33.42;nan;98176.38;4925160;29;20869;-63
2023/09/01 04:06:49;;;;;;;31.48;8.52;;;;;;;33.47;nan;98178.84;4927293;29;20074;-65
2023/09/01 04:09:20;;;;;;;36.47;10.13;;;;;;;33.41;nan;98180.31;4933644;29;20051;-65
2023/09/01 04:11:49;;;;;;;38.85;11.52;;;;;;;33.44;nan;98179.56;4931865;29;20114;-64
2023/09/01 04:14:18;;;;;;;31.00;9.40;;;;;;;33.59;nan;98191.72;4947965;28;20475;-66
2023/09/01 04:16:49;;;;;;;35.33;10.13;;;;;;;33.65;nan;98190.28;4922590;29;20467;-64
2023/09/01 04:19:18;;;;;;;34.58;9.30;;;;;;;33.78;nan;98191.78;4922287;29;20051;-65
2023/09/01 04:21:48;;;;;;;32.65;8.93;;;;;;;33.70;nan;98179.84;4928913;29;20048;-64
2023/09/01 04:24:18;;;;;;;38.05;8.77;;;;;;;33.76;nan;98191.38;4922779;28;20526;-67
2023/09/01 04:26:49;;;;;;;34.08;8.88;;;;;;;33.87;nan;98192.41;4910740;29;20054;-66
2023/09/01 04:29:19;;;;;;;30.33;8.85;;;;;;;33.93;nan;98188.22;4932673;28;20042;-71
2023/09/01 04:31:48;;;;;;;27.42;8.82;;;;;;;34.00;nan;98193.06;4930612;29;20486;-72
2023/09/01 04:34:19;;;;;;;31.77;8.13;;;;;;;34.08;nan;98195.63;4920540;29;20158;-70
2023/09/01 04:36:51;;;;;;;33.63;8.55;;;;;;;34.21;nan;98199.84;4898043;29;20043;-70
2023/09/01 04:39:21;;;;;;;36.58;8.45;;;;;;;34.29;nan;98200.81;4910408;29;20370;-69
2023/09/01 04:41:51;;;;;;;26.40;8.70;;;;;;;34.41;nan;98192.44;4894380;29;20035;-70
2023/09/01 04:44:20;;;;;;;30.23;7.50;;;;;;;34.56;nan;98199.03;4909799;29;20131;-69
2023/09/01 04:46:50;;;;;;;35.78;7.57;;;;;;;34.82;nan;98199.19;4908183;29;20134;-70
2023/09/01 04:49:19;;;;;;;26.80;6.50;;;;;;;35.06;nan;98203.53;4902674;29;20139;-68
2023/09/01 04:51:51;;;;;;;21.92;6.18;;;;;;;35.28;nan;98208.28;4905312;29;20626;-68
2023/09/01 04:54:21;;;;;;;25.10;6.43;;;;;;;35.52;nan;98199.66;4891360;29;20058;-68
2023/09/01 04:56:50;;;;;;;20.77;5.80;;;;;;;35.79;nan;98205.22;4909198;29;20114;-68
2023/09/01 04:59:20;;;;;;;25.58;6.22;;;;;;;36.14;nan;98200.25;4923635;29;20891;-65
2023/09/01 05:01:50;;;;;;;23.88;6.18;;;;;;;36.35;nan;98206.06;4920491;29;20531;-65
2023/09/01 05:04:19;;;;;;;16.40;5.88;;;;;;;36.58;nan;98210.66;4922060;29;20051;-65
2023/09/01 05:06:49;;;;;;;26.83;5.95;;;;;;;36.51;nan;98211.41;4899720;29;20052;-65
2023/09/01 05:09:22;;;;;;;19.52;5.70;;;;;;;36.93;nan;98211.09;4909723;29;20179;-65
2023/09/01 05:11:52;;;;;;;25.40;6.78;;;;;;;36.83;nan;98212.56;4900803;29;20055;-65
2023/09/01 05:14:21;;;;;;;21.45;6.20;;;;;;;37.27;nan;98206.34;4900764;29;21600;-66
2023/09/01 05:16:51;;;;;;;23.95;6.55;;;;;;;37.47;nan;98210.47;4914132;29;20372;-65
2023/09/01 05:19:20;;;;;;;23.25;5.82;;;;;;;37.31;nan;98207.19;4902929;29;20136;-65
2023/09/01 05:21:50;;;;;;;23.98;5.65;;;;;;;37.15;nan;98210.19;4916584;29;20048;-65
2023/09/01 05:24:19;;;;;;;20.80;4.80;;;;;;;37.71;nan;98209.09;4919107;29;20055;-65
2023/09/01 05:26:48;;;;;;;24.02;6.72;;;;;;;37.68;nan;98218.16;4925638;29;20094;-66
2023/09/01 05:29:17;;;;;;;17.27;5.15;;;;;;;37.98;nan;98206.94;4925448;29;20048;-65
2023/09/01 05:31:47;;;;;;;26.25;5.88;;;;;;;38.07;nan;98205.44;4901313;29;20059;-66
2023/09/01 05:34:17;;;;;;;19.92;5.65;;;;;;;37.86;nan;98204.47;4922999;28;20158;-65
2023/09/01 05:36:47;;;;;;;22.15;5.70;;;;;;;37.60;nan;98206.28;4958218;28;20057;-66
2023/09/01 05:39:16;;;;;;;22.45;5.65;;;;;;;37.76;nan;98212.31;4951240;28;20038;-65
2023/09/01 05:41:45;;;;;;;20.38;6.15;;;;;;;38.10;nan;98207.44;4961718;28;20065;-65
2023/09/01 05:44:15;;;;;;;15.95;5.85;;;;;;;37.98;nan;98207.75;4946044;28;20047;-66
2023/09/01 05:46:45;;;;;;;23.05;5.57;;;;;;;37.91;nan;98202.16;4945447;28;20046;-65
2023/09/01 05:49:15;;;;;;;22.75;6.15;;;;;;;38.15;nan;98201.50;4938880;28;20637;-64
2023/09/01 05:51:44;;;;;;;27.10;5.32;;;;;;;37.84;nan;98199.34;4939525;28;20054;-61
2023/09/01 05:54:13;;;;;;;23.40;5.72;;;;;;;37.99;nan;98198.28;4962782;28;20577;-66
2023/09/01 05:56:43;;;;;;;19.48;5.13;;;;;;;38.03;nan;98204.63;4952956;28;20061;-66
2023/09/01 05:59:13;;;;;;;17.75;5.95;;;;;;;37.92;nan;98202.94;4950410;28;20470;-65
2023/09/01 06:01:42;;;;;;;22.27;5.18;;;;;;;38.10;nan;98214.94;4943847;28;20504;-65
2023/09/01 06:04:13;;;;;;;20.88;5.72;;;;;;;38.22;nan;98198.00;4957051;28;20149;-65
2023/09/01 06:06:43;;;;;;;19.52;5.88;;;;;;;37.96;nan;98201.78;4949800;28;20055;-66
2023/09/01 06:09:12;;;;;;;26.88;5.60;;;;;;;37.87;nan;98197.78;4947552;28;20446;-66
2023/09/01 06:11:41;;;;;;;25.98;5.22;;;;;;;37.77;nan;98196.50;4954232;28;20050;-65
2023/09/01 06:14:10;;;;;;;19.45;5.43;;;;;;;37.57;nan;98192.44;4940720;28;20066;-65
2023/09/01 06:16:39;;;;;;;20.90;4.85;;;;;;;37.80;nan;98190.19;4957477;28;20434;-66
2023/09/01 06:19:09;;;;;;;22.55;5.90;;;;;;;38.04;nan;98195.16;4953207;28;20726;-65
2023/09/01 06:21:38;;;;;;;22.42;6.55;;;;;;;37.87;nan;98193.03;4954782;28;20675;-65
2023/09/01 06:24:07;;;;;;;21.08;5.30;;;;;;;37.67;nan;98194.47;4957113;28;20408;-65
2023/09/01 06:26:37;;;;;;;22.77;5.40;;;;;;;37.53;nan;98178.56;4958190;28;20506;-66
2023/09/01 06:29:06;;;;;;;25.40;6.00;;;;;;;37.48;nan;98183.63;4959065;28;20062;-66
2023/09/01 06:31:36;;;;;;;22.95;5.57;;;;;;;37.44;nan;98180.84;4960867;28;20062;-65
2023/09/01 06:34:05;;;;;;;30.98;5.15;;;;;;;37.63;nan;98174.28;4946761;28;20067;-66
2023/09/01 06:36:35;;;;;;;17.08;5.00;;;;;;;37.57;nan;98175.84;4929372;29;20051;-65
2023/09/01 06:39:04;;;;;;;17.67;5.30;;;;;;;37.71;nan;98179.47;4938066;28;20057;-66
2023/09/01 06:41:40;;;;;;;14.43;4.43;;;;;;;37.68;nan;98171.16;4935888;28;20047;-65
2023/09/01 06:44:10;;;;;;;18.85;4.82;;;;;;;37.33;nan;98166.13;4941430;28;20043;-65
2023/09/01 06:46:39;;;;;;;26.75;6.22;;;;;;;37.16;nan;98164.03;4931922;29;20056;-65
2023/09/01 06:49:08;;;;;;;20.23;5.43;;;;;;;37.07;nan;98169.06;4937661;28;20054;-65
2023/09/01 06:51:37;;;;;;;19.95;5.35;;;;;;;37.11;nan;98170.69;4940552;28;20054;-65
2023/09/01 06:54:09;;;;;;;22.17;5.80;;;;;;;37.39;nan;98169.34;4939024;29;20070;-66
2023/09/01 06:56:38;;;;;;;22.05;5.68;;;;;;;37.43;nan;98170.16;4939728;28;20195;-65
2023/09/01 06:59:08;;;;;;;15.80;4.43;;;;;;;37.17;nan;98174.69;4936164;28;20047;-65
2023/09/01 07:01:37;;;;;;;24.33;5.53;;;;;;;37.12;nan;98168.72;4942030;28;20061;-66
2023/09/01 07:04:10;;;;;;;18.70;5.05;;;;;;;37.35;nan;98167.34;4933797;28;20070;-66
2023/09/01 07:06:40;;;;;;;26.95;7.60;;;;;;;37.26;nan;98166.88;4916466;29;20746;-65
2023/09/01 07:09:09;;;;;;;22.67;6.13;;;;;;;37.27;nan;98168.44;4937171;28;20044;-65
2023/09/01 07:11:38;;;;;;;21.63;4.63;;;;;;;37.26;nan;98172.41;4925170;29;20055;-65
2023/09/01 07:14:07;;;;;;;20.98;5.60;;;;;;;37.33;nan;98166.13;4937623;28;20061;-64
2023/09/01 07:16:38;;;;;;;17.55;5.05;;;;;;;37.19;nan;98169.56;4945256;28;20043;-64
2023/09/01 07:19:08;;;;;;;20.10;4.65;;;;;;;37.11;nan;98165.16;4941458;28;20355;-65
2023/09/01 07:21:37;;;;;;;19.27;5.15;;;;;;;37.28;nan;98172.81;4935970;28;20642;-64
2023/09/01 07:24:07;;;;;;;18.52;4.70;;;;;;;37.05;nan;98161.13;4934774;29;20062;-64
2023/09/01 07:26:39;;;;;;;22.13;4.47;;;;;;;36.97;nan;98161.44;4945955;28;20470;-65
2023/09/01 07:29:09;;;;;;;18.20;6.40;;;;;;;37.11;nan;98158.84;4939657;28;20047;-66
2023/09/01 07:31:38;;;;;;;19.58;6.20;;;;;;;37.02;nan;98150.84;4944070;28;20593;-64
2023/09/01 07:34:07;;;;;;;14.25;5.18;;;;;;;37.10;nan;98152.53;4937295;28;20651;-66
2023/09/01 07:36:37;;;;;;;14.98;4.68;;;;;;;36.98;nan;98149.22;4936057;29;20043;-65
2023/09/01 07:39:06;;;;;;;26.23;6.55;;;;;;;36.84;nan;98139.63;4945625;28;20142;-65
2023/09/01 07:41:36;;;;;;;24.45;5.40;;;;;;;37.09;nan;98131.59;4945477;28;20643;-65
2023/09/01 07:44:05;;;;;;;17.52;5.50;;;;;;;37.16;nan;98137.19;4939156;28;20232;-64
2023/09/01 07:46:34;;;;;;;24.15;6.40;;;;;;;37.18;nan;98134.81;4943701;28;20702;-64
2023/09/01 07:49:04;;;;;;;23.08;6.30;;;;;;;36.90;nan;98129.84;4943615;28;20058;-64
2023/09/01 07:51:33;;;;;;;23.50;5.25;;;;;;;36.92;nan;98132.19;4934054;28;20495;-64
2023/09/01 07:54:02;;;;;;;21.42;6.00;;;;;;;36.96;nan;98127.50;4935003;28;20058;-65
2023/09/01 07:56:35;;;;;;;21.85;5.97;;;;;;;36.83;nan;98121.47;4935170;28;20055;-66
2023/09/01 07:59:07;;;;;;;19.35;6.18;;;;;;;36.77;nan;98116.69;4933937;28;20051;-67
2023/09/01 08:01:37;;;;;;;23.40;6.13;;;;;;;36.74;nan;98114.66;4933095;28;20434;-66
2023/09/01 08:04:06;;;;;;;27.23;6.18;;;;;;;36.63;nan;98113.78;4934822;28;20055;-64
2023/09/01 08:06:36;;;;;;;20.30;5.63;;;;;;;36.79;nan;98108.81;4933219;28;20044;-64
2023/09/01 08:09:05;;;;;;;17.08;5.63;;;;;;;36.77;nan;98105.66;4924987;28;20043;-65
2023/09/01 08:11:34;;;;;;;20.80;5.40;;;;;;;36.72;nan;98106.78;4943576;28;20055;-65
2023/09/01 08:14:04;;;;;;;21.55;6.10;;;;;;;36.78;nan;98099.72;4937686;28;20550;-65
2023/09/01 08:16:34;;;;;;;26.70;5.60;;;;;;;36.70;nan;98098.06;4945698;28;20058;-65
2023/09/01 08:19:03;;;;;;;27.60;6.20;;;;;;;36.63;nan;98099.97;4945638;28;20074;-65
2023/09/01 08:21:33;;;;;;;27.55;6.05;;;;;;;36.53;nan;98098.66;4941383;28;20055;-65
2023/09/01 08:24:03;;;;;;;23.45;6.00;;;;;;;36.66;nan;98105.53;4942927;28;20047;-65
2023/09/01 08:26:35;;;;;;;28.88;6.35;;;;;;;36.67;nan;98096.09;4938756;29;20550;-67
2023/09/01 08:29:04;;;;;;;;;;;;;;;36.71;nan;98091.38;4938252;28;20051;-64
2023/09/01 08:31:34;;;;;;;22.85;5.90;;;;;;;36.58;nan;98087.28;4930159;28;19927;-65
2023/09/01 08:34:03;;;;;;;22.00;6.15;;;;;;;36.51;nan;98092.75;4908937;28;20142;-65
2023/09/01 08:36:38;;;;;;;22.13;5.45;;;;;;;36.53;nan;98090.38;4940174;28;20059;-65
2023/09/01 08:39:07;;;;;;;16.65;5.80;;;;;;;36.43;nan;98089.09;4940787;28;20055;-66
2023/09/01 08:41:41;;;;;;;20.58;5.90;;;;;;;36.33;nan;98087.03;4943712;29;20062;-65
2023/09/01 08:44:12;;;;;;;21.92;5.90;;;;;;;36.34;nan;98072.03;4942662;28;20058;-65
2023/09/01 08:46:42;;;;;;;20.77;5.40;;;;;;;36.34;nan;98076.75;4907080;29;20055;-65
2023/09/01 08:49:13;;;;;;;21.60;6.18;;;;;;;36.40;nan;98070.53;4945293;28;20724;-65
2023/09/01 08:51:44;;;;;;;23.45;5.20;;;;;;;36.35;nan;98070.09;4948503;28;20066;-65
2023/09/01 08:54:16;;;;;;;22.83;5.10;;;;;;;36.30;nan;98071.22;4932140;28;20103;-65
2023/09/01 08:56:46;;;;;;;19.63;6.15;;;;;;;36.32;nan;98068.09;4926548;28;20158;-65
2023/09/01 08:59:16;;;;;;;20.92;6.63;;;;;;;36.19;nan;98064.81;4931098;28;20047;-66
2023/09/01 09:01:48;;;;;;;20.50;5.28;;;;;;;36.13;nan;98055.25;4933123;28;20471;-65
2023/09/01 09:04:20;;;;;;;20.87;6.13;;;;;;;36.14;nan;98050.53;4931034;28;20051;-65
2023/09/01 09:06:50;;;;;;;20.13;5.28;;;;;;;36.16;nan;98051.75;4934081;28;20300;-66
2023/09/01 09:09:20;;;;;;;19.15;5.72;;;;;;;36.15;nan;98044.66;4929500;28;20084;-66
2023/09/01 09:12:00;;;;;;;20.02;4.93;;;;;;;35.97;nan;98041.66;4933318;28;20154;-66
2023/09/01 09:14:49;;;;;;;18.88;5.63;;;;;;;35.92;nan;98036.47;4940720;28;20051;-66
2023/09/01 09:17:44;;;;;;;21.42;6.07;;;;;;;35.95;nan;98032.16;4933827;28;20054;-65
2023/09/01 09:20:17;;;;;;;16.75;5.18;;;;;;;36.01;nan;98027.91;4928970;28;20070;-65
2023/09/01 09:23:01;;;;;;;18.15;5.70;;;;;;;36.02;nan;98024.00;4917085;29;20074;-65
2023/09/01 09:25:32;;;;;;;16.60;5.40;;;;;;;35.95;nan;98018.38;4933166;28;20608;-64
2023/09/01 09:28:13;;;;;;;20.63;4.55;;;;;;;35.94;nan;98016.78;4927986;28;20122;-64
2023/09/01 09:30:52;;;;;;;19.52;5.22;;;;;;;35.97;nan;98018.81;4934306;28;20055;-65
2023/09/01 09:33:30;;;;;;;17.48;5.93;;;;;;;35.90;nan;98014.00;4932242;28;20131;-63
2023/09/01 09:36:00;;;;;;;20.75;5.68;;;;;;;35.94;nan;98014.03;4931809;28;20039;-64
2023/09/01 09:38:40;;;;;;;22.83;5.40;;;;;;;35.88;nan;98012.81;4930505;28;20086;-64
2023/09/01 09:41:10;;;;;;;22.27;5.32;;;;;;;35.87;nan;98005.69;4932004;28;20058;-62
2023/09/01 09:43:49;;;;;;;26.05;6.18;;;;;;;35.88;nan;98010.03;4932963;28;20525;-64
2023/09/01 09:46:19;;;;;;;17.80;5.03;;;;;;;35.80;nan;97998.16;4932632;28;20051;-66
2023/09/01 09:48:50;;;;;;;24.75;5.70;;;;;;;35.74;nan;97998.84;4924526;29;20563;-65
2023/09/01 09:51:21;;;;;;;25.42;5.90;;;;;;;35.74;nan;97996.09;4937741;28;20448;-63
2023/09/01 09:53:52;;;;;;;27.70;6.93;;;;;;;35.79;nan;97990.25;4931015;28;20130;-63
2023/09/01 09:56:30;;;;;;;14.60;4.80;;;;;;;35.66;nan;97981.44;4929159;28;20048;-64
2023/09/01 09:59:04;;;;;;;16.75;5.25;;;;;;;35.65;nan;97979.03;4930264;28;20051;-64
2023/09/01 10:01:43;;;;;;;22.20;6.07;;;;;;;35.65;nan;97976.28;4933686;28;20058;-65
2023/09/01 10:04:15;;;;;;;18.52;5.38;;;;;;;35.63;nan;97973.88;4932090;28;20044;-65
2023/09/01 10:06:45;;;;;;;25.42;5.53;;;;;;;35.66;nan;97981.44;4933220;28;20107;-65
2023/09/01 10:09:16;;;;;;;19.23;5.65;;;;;;;35.67;nan;97973.97;4936407;28;20051;-64
2023/09/01 10:11:47;;;;;;;22.35;5.57;;;;;;;35.60;nan;97974.63;4933731;28;20056;-64
2023/09/01 10:14:20;;;;;;;15.80;5.47;;;;;;;35.62;nan;97974.25;4932200;28;20031;-64
2023/09/01 10:16:50;;;;;;;20.45;6.38;;;;;;;35.65;nan;97971.56;4932058;28;20054;-64
2023/09/01 10:19:24;;;;;;;15.52;5.30;;;;;;;35.56;nan;97971.03;4935438;28;20485;-64
2023/09/01 10:21:53;;;;;;;22.65;6.38;;;;;;;35.53;nan;97963.53;4932040;28;20047;-67
2023/09/01 10:24:22;;;;;;;20.65;5.93;;;;;;;35.51;nan;97961.13;4918024;29;20139;-65
2023/09/01 10:27:10;;;;;;;29.45;5.93;;;;;;;35.52;nan;97962.72;4933102;28;20055;-66
2023/09/01 10:29:40;;;;;;;21.92;5.82;;;;;;;35.42;nan;97966.13;4930674;29;20055;-64
2023/09/01 10:32:19;;;;;;;19.83;5.80;;;;;;;35.37;nan;97957.41;4933521;28;20054;-64
2023/09/01 10:34:56;;;;;;;17.15;5.65;;;;;;;35.35;nan;97957.78;4930581;28;20071;-64
2023/09/01 10:37:30;;;;;;;18.02;5.32;;;;;;;35.35;nan;97955.03;4929716;28;20047;-64
2023/09/01 10:40:00;;;;;;;19.58;6.55;;;;;;;35.29;nan;97952.97;4930294;28;20115;-64
2023/09/01 10:42:41;;;;;;;20.35;6.50;;;;;;;35.29;nan;97945.50;4899741;29;20742;-63
2023/09/01 10:45:12;;;;;;;19.38;6.75;;;;;;;35.32;nan;97947.50;4931139;28;20039;-63
2023/09/01 10:47:43;;;;;;;18.40;6.32;;;;;;;35.29;nan;97937.25;4937709;28;20044;-64
2023/09/01 10:50:12;;;;;;;17.08;6.35;;;;;;;35.26;nan;97940.75;4931681;28;20051;-66
2023/09/01 10:52:42;;;;;;;26.10;7.53;;;;;;;35.20;nan;97947.75;4939666;28;20242;-64
2023/09/01 10:55:12;;;;;;;21.75;6.20;;;;;;;35.14;nan;97935.47;4933979;28;20189;-64
2023/09/01 10:57:43;;;;;;;20.38;5.88;;;;;;;35.19;nan;97931.59;4941049;28;20138;-64
2023/09/01 11:00:29;;;;;;;21.45;6.93;;;;;;;35.15;nan;97934.25;4937284;28;20066;-66
2023/09/01 11:03:27;;;;;;;22.95;5.15;;;;;;;35.15;nan;97932.34;4934628;28;20378;-64
2023/09/01 11:05:58;;;;;;;17.67;5.50;;;;;;;35.05;nan;97923.91;4935775;28;20047;-65
2023/09/01 11:08:28;;;;;;;13.57;4.80;;;;;;;35.03;nan;97924.28;4934014;28;20047;-63
2023/09/01 11:11:08;;;;;;;14.02;4.32;;;;;;;35.05;nan;97929.44;4937228;28;20095;-63
2023/09/01 11:13:37;;;;;;;21.65;5.05;;;;;;;35.04;nan;97922.31;4936284;28;20043;-64
2023/09/01 11:16:12;;;;;;;23.85;5.65;;;;;;;34.98;nan;97921.84;4935499;28;20066;-63
2023/09/01 11:18:44;;;;;;;22.98;6.10;;;;;;;34.98;nan;97918.31;4933269;28;20051;-63
2023/09/01 11:21:15;;;;;;;31.05;6.50;;;;;;;34.97;nan;97923.00;4932905;28;20063;-64
2023/09/01 11:23:47;;;;;;;26.58;5.75;;;;;;;34.94;nan;97922.97;4907924;29;20046;-62
2023/09/01 11:26:18;;;;;;;19.80;5.63;;;;;;;34.88;nan;97916.19;4896732;29;20688;-67
2023/09/01 11:28:48;;;;;;;27.65;7.70;;;;;;;34.81;nan;97916.09;4911275;29;20431;-66
2023/09/01 11:31:17;;;;;;;17.73;5.78;;;;;;;34.77;nan;97915.25;4940179;28;20084;-66
2023/09/01 11:33:54;;;;;;;17.05;6.13;;;;;;;34.70;nan;97916.72;4937556;28;20051;-66
2023/09/01 11:36:23;;;;;;;19.98;6.78;;;;;;;34.67;nan;97911.97;4923438;28;20055;-67
2023/09/01 11:38:53;;;;;;;22.20;7.13;;;;;;;34.62;nan;97912.25;4884685;29;20056;-66
2023/09/01 11:41:23;;;;;;;26.05;6.35;;;;;;;34.59;nan;97918.50;4918965;29;20476;-66
2023/09/01 11:43:56;;;;;;;25.30;7.25;;;;;;;34.52;nan;97907.34;4915707;29;20063;-66
2023/09/01 11:46:32;;;;;;;17.40;6.13;;;;;;;34.50;nan;97904.19;4920202;29;20103;-66
2023/09/01 11:49:03;;;;;;;23.77;7.00;;;;;;;34.50;nan;97911.66;4914417;29;20275;-65
2023/09/01 11:51:42;;;;;;;19.83;6.72;;;;;;;34.46;nan;97910.81;4918988;29;20064;-66
2023/09/01 11:54:14;;;;;;;25.23;6.60;;;;;;;34.41;nan;97906.41;4918939;29;20099;-67
2023/09/01 11:56:43;;;;;;;23.38;6.47;;;;;;;34.33;nan;97912.97;4905839;29;20052;-66
2023/09/01 11:59:22;;;;;;;28.27;6.28;;;;;;;34.30;nan;97913.69;4918859;28;20603;-67